createdAt,value
2022-08-09T00:00:00.601Z,101898.63
2022-08-09T00:02:28.648Z,101903.25
2022-08-09T00:05:00.753Z,101902.38
2022-08-09T00:07:44.897Z,101901.44
2022-08-09T00:10:11.831Z,101905.16
2022-08-09T00:12:51.513Z,101904.94
2022-08-09T00:15:19.060Z,101905.13
2022-08-09T00:18:10.810Z,101901.72
2022-08-09T00:20:32.762Z,101909.03
2022-08-09T00:23:53.975Z,101907.28
2022-08-09T00:25:51.715Z,101906.34
2022-08-09T00:28:19.310Z,101906.41
2022-08-09T00:30:50.380Z,101909.19
2022-08-09T00:33:17.044Z,101893.00
2022-08-09T00:35:43.865Z,101898.47
2022-08-09T00:38:12.605Z,101896.72
2022-08-09T00:40:52.990Z,101894.00
2022-08-09T00:44:10.516Z,101890.41
2022-08-09T00:46:10.027Z,101888.66
2022-08-09T00:48:37.060Z,101883.34
2022-08-09T00:51:11.961Z,101885.19
2022-08-09T00:53:39.949Z,101890.59
2022-08-09T00:56:10.000Z,101883.53
2022-08-09T00:58:36.902Z,101878.22
2022-08-09T01:01:15.916Z,101880.03
2022-08-09T01:03:54.973Z,101884.44
2022-08-09T01:06:35.235Z,101884.38
2022-08-09T01:09:40.088Z,101890.75
2022-08-09T01:12:18.997Z,101893.63
2022-08-09T01:14:57.650Z,101896.41
2022-08-09T01:17:34.004Z,101895.53
2022-08-09T01:20:26.940Z,101885.72
2022-08-09T01:24:01.291Z,101900.94
2022-08-09T01:26:02.264Z,101902.81
2022-08-09T01:28:30.153Z,101902.81
2022-08-09T01:30:59.887Z,101896.66
2022-08-09T01:33:28.511Z,101894.84
2022-08-09T01:36:03.945Z,101898.56
2022-08-09T01:38:33.036Z,101893.31
2022-08-09T01:41:05.218Z,101904.88
2022-08-09T01:43:51.218Z,101903.13
2022-08-09T01:46:47.057Z,101914.78
2022-08-09T01:49:16.133Z,101905.94
2022-08-09T01:51:53.708Z,101902.31
2022-08-09T01:54:33.370Z,101905.13
2022-08-09T01:57:05.068Z,101898.84
2022-08-09T01:59:33.953Z,101905.06
2022-08-09T02:02:18.109Z,101904.25
2022-08-09T02:04:49.113Z,101906.00
2022-08-09T02:08:39.035Z,101906.97
2022-08-09T02:10:11.312Z,101912.41
2022-08-09T02:12:39.179Z,101911.53
2022-08-09T02:15:07.865Z,101915.19
2022-08-09T02:18:00.041Z,101911.69
2022-08-09T02:20:26.438Z,101909.00
2022-08-09T02:23:09.429Z,101909.06
2022-08-09T02:25:42.523Z,101910.84
2022-08-09T02:28:19.268Z,101910.06
2022-08-09T02:30:49.856Z,101906.50
2022-08-09T02:33:58.385Z,101913.66
2022-08-09T02:36:33.429Z,101917.16
2022-08-09T02:39:03.613Z,101903.81
2022-08-09T02:41:44.888Z,101902.94
2022-08-09T02:44:29.495Z,101901.97
2022-08-09T02:46:58.536Z,101908.28
2022-08-09T02:49:40.983Z,101914.59
2022-08-09T02:52:12.540Z,101919.78
2022-08-09T02:54:54.265Z,101921.72
2022-08-09T02:57:25.480Z,101917.22
2022-08-09T03:00:11.254Z,101920.84
2022-08-09T03:02:58.514Z,101916.38
2022-08-09T03:05:27.097Z,101918.16
2022-08-09T03:07:55.143Z,101923.50
2022-08-09T03:10:22.363Z,101927.97
2022-08-09T03:12:52.158Z,101923.41
2022-08-09T03:15:20.794Z,101920.78
2022-08-09T03:17:53.899Z,101920.75
2022-08-09T03:20:29.499Z,101922.63
2022-08-09T03:23:00.309Z,101928.03
2022-08-09T03:25:57.714Z,101924.44
2022-08-09T03:28:27.238Z,101925.25
2022-08-09T03:30:55.135Z,101924.38
2022-08-09T03:33:22.347Z,101927.00
2022-08-09T03:36:16.069Z,101930.53
2022-08-09T03:38:42.168Z,101932.44
2022-08-09T03:41:15.554Z,101936.97
2022-08-09T03:44:03.442Z,101933.47
2022-08-09T03:46:31.584Z,101939.66
2022-08-09T03:48:59.717Z,101938.81
2022-08-09T03:51:57.277Z,101937.06
2022-08-09T03:54:18.744Z,101937.72
2022-08-09T03:56:58.184Z,101944.94
2022-08-09T03:59:27.434Z,101944.03
2022-08-09T04:02:10.460Z,101939.56
2022-08-09T04:04:38.758Z,101945.06
2022-08-09T04:07:06.044Z,101944.16
2022-08-09T04:09:48.392Z,101947.56
2022-08-09T04:12:46.234Z,101943.06
2022-08-09T04:15:29.371Z,101945.03
2022-08-09T04:18:01.106Z,101952.16
2022-08-09T04:20:27.756Z,101952.28
2022-08-09T04:22:55.626Z,101952.16
2022-08-09T04:25:22.637Z,101953.84
2022-08-09T04:27:49.613Z,101952.94
2022-08-09T04:30:20.951Z,101961.03
2022-08-09T04:32:50.429Z,101969.06
2022-08-09T04:35:17.312Z,101968.94
2022-08-09T04:37:48.447Z,101968.00
2022-08-09T04:40:28.811Z,101973.13
2022-08-09T04:43:02.453Z,101968.69
2022-08-09T04:45:30.735Z,101972.97
2022-08-09T04:48:03.146Z,101984.28
2022-08-09T04:50:35.058Z,101977.94
2022-08-09T04:53:11.502Z,101983.19
2022-08-09T04:55:57.268Z,101982.94
2022-08-09T04:58:25.714Z,101988.06
2022-08-09T05:00:52.729Z,101984.31
2022-08-09T05:03:40.932Z,101988.59
2022-08-09T05:06:08.858Z,101986.84
2022-08-09T05:08:35.634Z,101992.94
2022-08-09T05:11:03.291Z,101992.53
2022-08-09T05:13:33.953Z,101995.72
2022-08-09T05:16:05.620Z,101993.81
2022-08-09T05:18:38.209Z,101995.22
2022-08-09T05:21:19.074Z,101993.16
2022-08-09T05:23:55.427Z,101995.63
2022-08-09T05:26:36.592Z,101993.53
2022-08-09T05:29:17.389Z,101996.88
2022-08-09T05:31:46.657Z,102001.81
2022-08-09T05:34:17.561Z,101996.88
2022-08-09T05:36:47.088Z,101996.59
2022-08-09T05:39:29.032Z,102002.56
2022-08-09T05:42:01.691Z,102010.41
2022-08-09T05:44:32.647Z,102004.63
2022-08-09T05:47:01.397Z,102006.09
2022-08-09T05:50:30.610Z,102008.72
2022-08-09T05:52:20.240Z,102005.66
2022-08-09T05:54:49.176Z,102006.22
2022-08-09T05:57:17.561Z,102009.00
2022-08-09T05:59:45.984Z,102005.53
2022-08-09T06:02:16.973Z,102020.50
2022-08-09T06:04:45.901Z,102011.59
2022-08-09T06:07:21.929Z,102016.38
2022-08-09T06:10:02.488Z,102001.38
2022-08-09T06:12:27.727Z,102016.94
2022-08-09T06:14:54.376Z,102015.44
2022-08-09T06:17:21.008Z,102018.72
2022-08-09T06:19:47.628Z,102027.50
2022-08-09T06:22:15.775Z,102019.56
2022-08-09T06:24:43.633Z,102022.31
2022-08-09T06:27:10.294Z,102020.19
2022-08-09T06:29:48.053Z,102021.38
2022-08-09T06:33:00.212Z,102029.97
2022-08-09T06:35:11.127Z,102032.44
2022-08-09T06:37:50.812Z,102035.44
2022-08-09T06:40:25.472Z,102031.47
2022-08-09T06:42:53.239Z,102030.09
2022-08-09T06:46:06.241Z,102032.63
2022-08-09T06:48:07.648Z,102026.53
2022-08-09T06:50:35.795Z,102024.56
2022-08-09T06:53:02.714Z,102032.09
2022-08-09T06:55:32.059Z,102027.69
2022-08-09T06:58:01.818Z,102025.25
2022-08-09T07:00:49.991Z,102039.06
2022-08-09T07:03:18.191Z,102030.50
2022-08-09T07:05:58.620Z,102034.75
2022-08-09T07:08:30.921Z,102034.38
2022-08-09T07:10:57.547Z,102044.78
2022-08-09T07:13:28.225Z,102041.06
2022-08-09T07:16:43.302Z,102042.56
2022-08-09T07:18:43.486Z,102041.16
2022-08-09T07:21:10.334Z,102046.56
2022-08-09T07:23:46.752Z,102047.59
2022-08-09T07:26:25.266Z,102052.59
2022-08-09T07:29:09.391Z,102053.09
2022-08-09T07:31:45.854Z,102045.72
2022-08-09T07:34:20.179Z,102049.44
2022-08-09T07:36:49.347Z,102044.31
2022-08-09T07:39:20.162Z,102047.13
2022-08-09T07:42:03.031Z,102050.13
2022-08-09T07:44:32.968Z,102051.59
2022-08-09T07:47:18.656Z,102059.22
2022-08-09T07:50:04.368Z,102051.84
2022-08-09T07:52:33.086Z,102064.50
2022-08-09T07:55:03.967Z,102057.34
2022-08-09T07:57:36.363Z,102053.25
2022-08-09T08:00:05.076Z,102055.22
2022-08-09T08:02:36.091Z,102056.56
2022-08-09T08:05:18.015Z,102057.91
2022-08-09T08:08:43.597Z,102042.34
2022-08-09T08:10:34.380Z,102050.06
2022-08-09T08:13:01.507Z,102040.88
2022-08-09T08:15:37.460Z,102046.00
2022-08-09T08:18:04.610Z,102047.09
2022-08-09T08:20:33.073Z,102044.38
2022-08-09T08:23:15.841Z,102040.22
2022-08-09T08:25:46.169Z,102047.56
2022-08-09T08:28:18.221Z,102043.38
2022-08-09T08:30:52.475Z,102046.72
2022-08-09T08:33:23.833Z,102047.38
2022-08-09T08:35:59.793Z,102048.06
2022-08-09T08:38:29.170Z,102052.25
2022-08-09T08:40:56.985Z,102039.19
2022-08-09T08:43:24.080Z,102043.94
2022-08-09T08:46:10.070Z,102040.09
2022-08-09T08:48:51.223Z,102046.41
2022-08-09T08:51:18.811Z,102053.97
2022-08-09T08:54:03.479Z,102052.00
2022-08-09T08:56:37.631Z,102053.72
2022-08-09T08:59:19.473Z,102047.22
2022-08-09T09:01:52.886Z,102046.56
2022-08-09T09:04:27.030Z,102040.84
2022-08-09T09:06:57.383Z,102043.53
2022-08-09T09:09:58.613Z,102042.59
2022-08-09T09:12:16.952Z,102034.34
2022-08-09T09:14:44.858Z,102037.19
2022-08-09T09:17:13.002Z,102032.19
2022-08-09T09:19:43.892Z,102041.56
2022-08-09T09:22:16.148Z,102047.28
2022-08-09T09:24:57.725Z,102057.88
2022-08-09T09:28:06.930Z,102044.34
2022-08-09T09:30:41.360Z,102046.78
2022-08-09T09:33:15.253Z,102041.69
2022-08-09T09:36:02.411Z,102041.53
2022-08-09T09:38:43.853Z,102041.59
2022-08-09T09:41:49.469Z,102035.53
2022-08-09T09:44:25.301Z,102038.19
2022-08-09T09:46:56.481Z,102039.44
2022-08-09T09:49:56.325Z,102037.66
2022-08-09T09:52:33.306Z,102039.44
2022-08-09T09:55:27.632Z,102029.38
2022-08-09T09:58:19.296Z,102027.47
2022-08-09T10:00:55.693Z,102027.06
2022-08-09T10:03:57.631Z,102034.88
2022-08-09T10:06:28.013Z,102035.47
2022-08-09T10:09:11.813Z,102026.91
2022-08-09T10:12:14.864Z,102032.16
2022-08-09T10:14:48.499Z,102031.59
2022-08-09T10:17:40.203Z,102027.72
2022-08-09T10:20:27.606Z,102025.16
2022-08-09T10:23:17.298Z,102018.06
2022-08-09T10:26:07.982Z,102026.56
2022-08-09T10:28:35.858Z,102022.22
2022-08-09T10:34:09.823Z,102027.44
2022-08-09T10:36:37.605Z,102023.44
2022-08-09T10:39:13.935Z,102013.94
2022-08-09T10:41:42.998Z,102011.50
2022-08-09T10:44:09.930Z,102001.56
2022-08-09T10:47:07.545Z,102004.00
2022-08-09T10:50:18.088Z,101992.44
2022-08-09T10:53:04.569Z,101998.31
2022-08-09T10:55:49.372Z,101997.75
2022-08-09T10:58:33.970Z,101995.88
2022-08-09T11:03:05.681Z,101998.31
2022-08-09T11:04:31.360Z,102001.69
2022-08-09T11:06:59.605Z,102003.81
2022-08-09T11:09:41.182Z,101999.16
2022-08-09T11:12:29.830Z,102005.09
2022-08-09T11:14:58.843Z,101999.94
2022-08-09T11:17:25.406Z,101990.22
2022-08-09T11:20:20.298Z,102002.06
2022-08-09T11:22:57.237Z,101990.38
2022-08-09T11:25:47.823Z,101989.38
2022-08-09T11:28:54.133Z,101984.22
2022-08-09T11:31:48.782Z,101987.19
2022-08-09T11:34:23.063Z,101985.00
2022-08-09T11:36:49.923Z,101979.19
2022-08-09T11:39:16.842Z,101985.84
2022-08-09T11:41:43.797Z,101995.53
2022-08-09T11:44:12.059Z,101987.78
2022-08-09T11:46:57.603Z,101983.25
2022-08-09T11:50:54.128Z,101985.94
2022-08-09T11:53:57.861Z,101995.56
2022-08-09T11:55:52.445Z,101991.13
2022-08-09T11:58:30.190Z,101992.53
2022-08-09T12:01:08.573Z,101981.56
2022-08-09T12:03:57.018Z,101983.34
2022-08-09T12:06:32.354Z,101979.94
2022-08-09T12:09:01.201Z,101984.19
2022-08-09T12:11:28.852Z,101989.75
2022-08-09T12:14:09.787Z,101987.03
2022-08-09T12:16:41.682Z,101979.16
2022-08-09T12:19:12.211Z,101979.63
2022-08-09T12:21:48.678Z,101974.50
2022-08-09T12:24:24.912Z,101971.31
2022-08-09T12:28:59.481Z,101985.66
2022-08-09T12:30:04.391Z,101970.47
2022-08-09T12:32:40.728Z,101978.47
2022-08-09T12:35:10.930Z,101975.13
2022-08-09T12:37:43.996Z,101965.56
2022-08-09T12:40:18.922Z,101966.44
2022-08-09T12:42:46.196Z,101958.44
2022-08-09T12:45:33.736Z,101963.53
2022-08-09T12:48:03.551Z,101959.09
2022-08-09T12:50:30.921Z,101965.53
2022-08-09T12:53:09.328Z,101959.72
2022-08-09T12:56:13.964Z,101949.75
2022-08-09T12:58:30.874Z,101953.31
2022-08-09T13:00:58.495Z,101953.34
2022-08-09T13:03:53.417Z,101949.56
2022-08-09T13:06:25.501Z,101952.25
2022-08-09T13:09:06.571Z,101950.84
2022-08-09T13:11:39.603Z,101949.34
2022-08-09T13:14:42.412Z,101947.88
2022-08-09T13:17:08.342Z,101945.97
2022-08-09T13:20:09.980Z,101941.91
2022-08-09T13:23:00.551Z,101939.66
2022-08-09T13:25:14.294Z,101932.66
2022-08-09T13:27:48.636Z,101933.84
2022-08-09T13:31:11.215Z,101933.06
2022-08-09T13:33:24.740Z,101932.66
2022-08-09T13:36:37.613Z,101929.84
2022-08-09T13:39:00.938Z,101940.97
2022-08-09T13:41:57.643Z,101940.78
2022-08-09T13:44:16.819Z,101942.22
2022-08-09T13:47:29.092Z,101948.22
2022-08-09T13:49:39.620Z,101944.31
2022-08-09T13:52:19.442Z,101943.84
2022-08-09T13:54:59.186Z,101942.44
2022-08-09T13:57:36.520Z,101935.34
2022-08-09T14:00:42.777Z,101928.78
2022-08-09T14:04:01.782Z,101927.41
2022-08-09T14:06:19.390Z,101928.06
2022-08-09T14:08:54.193Z,101939.13
2022-08-09T14:11:22.022Z,101932.63
2022-08-09T14:14:24.857Z,101938.19
2022-08-09T14:16:36.754Z,101937.00
2022-08-09T14:19:03.710Z,101946.03
2022-08-09T14:21:32.243Z,101939.44
2022-08-09T14:24:05.730Z,101934.69
2022-08-09T14:26:46.100Z,101936.97
2022-08-09T14:30:03.813Z,101941.63
2022-08-09T14:32:11.103Z,101937.50
2022-08-09T14:34:41.061Z,101934.44
2022-08-09T14:37:08.518Z,101940.03
2022-08-09T14:39:46.500Z,101934.44
2022-08-09T14:42:30.232Z,101936.00
2022-08-09T14:46:39.172Z,101924.63
2022-08-09T14:47:56.930Z,101935.31
2022-08-09T14:50:27.014Z,101931.53
2022-08-09T14:52:53.677Z,101926.31
2022-08-09T14:55:21.471Z,101933.75
2022-08-09T14:57:48.941Z,101936.88
2022-08-09T15:00:16.664Z,101941.81
2022-08-09T15:02:47.419Z,101939.28
2022-08-09T15:05:16.121Z,101945.16
2022-08-09T15:07:45.540Z,101953.78
2022-08-09T15:10:21.783Z,101945.06
2022-08-09T15:12:55.038Z,101949.03
2022-08-09T15:15:22.554Z,101956.75
2022-08-09T15:17:52.463Z,101951.41
2022-08-09T15:21:54.981Z,101945.25
2022-08-09T15:24:01.647Z,101948.28
2022-08-09T15:25:55.615Z,101941.47
2022-08-09T15:28:28.087Z,101943.63
2022-08-09T15:31:09.875Z,101943.00
2022-08-09T15:34:16.258Z,101934.88
2022-08-09T15:36:29.222Z,101935.13
2022-08-09T15:39:00.631Z,101934.25
2022-08-09T15:41:31.758Z,101930.34
2022-08-09T15:44:02.549Z,101930.00
2022-08-09T15:46:34.490Z,101931.88
2022-08-09T15:49:22.095Z,101929.69
2022-08-09T15:52:03.376Z,101928.69
2022-08-09T15:54:49.524Z,101929.91
2022-08-09T15:57:18.947Z,101930.66
2022-08-09T16:00:26.189Z,101932.19
2022-08-09T16:02:54.896Z,101926.44
2022-08-09T16:05:26.683Z,101925.66
2022-08-09T16:08:29.906Z,101925.25
2022-08-09T16:10:58.179Z,101920.13
2022-08-09T16:14:03.511Z,101919.72
2022-08-09T16:16:17.060Z,101923.66
2022-08-09T16:18:45.338Z,101923.31
2022-08-09T16:21:17.206Z,101921.13
2022-08-09T16:23:55.522Z,101923.13
2022-08-09T16:26:33.902Z,101928.09
2022-08-09T16:29:05.946Z,101928.22
2022-08-09T16:32:18.804Z,101925.25
2022-08-09T16:34:24.761Z,101922.50
2022-08-09T16:36:51.607Z,101924.69
2022-08-09T16:39:18.266Z,101929.53
2022-08-09T16:42:04.239Z,101925.38
2022-08-09T16:44:32.511Z,101925.84
2022-08-09T16:47:03.940Z,101932.28
2022-08-09T16:50:30.207Z,101932.50
2022-08-09T16:52:33.199Z,101932.09
2022-08-09T16:55:00.073Z,101935.19
2022-08-09T16:57:26.697Z,101928.78
2022-08-09T17:00:14.760Z,101938.09
2022-08-09T17:02:42.707Z,101940.03
2022-08-09T17:05:14.440Z,101939.41
2022-08-09T17:08:45.319Z,101939.16
2022-08-09T17:10:43.902Z,101933.66
2022-08-09T17:13:11.669Z,101936.97
2022-08-09T17:15:58.874Z,101938.91
2022-08-09T17:18:30.041Z,101940.81
2022-08-09T17:20:57.958Z,101939.31
2022-08-09T17:24:19.985Z,101947.16
2022-08-09T17:26:12.394Z,101955.13
2022-08-09T17:28:39.212Z,101944.59
2022-08-09T17:31:05.875Z,101954.88
2022-08-09T17:33:37.724Z,101943.72
2022-08-09T17:36:05.083Z,101949.28
2022-08-09T17:38:37.116Z,101950.25
2022-08-09T17:41:05.858Z,101949.88
2022-08-09T17:43:36.990Z,101961.75
2022-08-09T17:46:06.979Z,101967.66
2022-08-09T17:48:39.066Z,101964.41
2022-08-09T17:51:18.437Z,101970.34
2022-08-09T17:53:52.115Z,101975.75
2022-08-09T17:56:27.193Z,101976.44
2022-08-09T17:59:11.290Z,101977.66
2022-08-09T18:01:58.163Z,101975.59
2022-08-09T18:04:26.458Z,101976.72
2022-08-09T18:06:54.852Z,101980.56
2022-08-09T18:09:23.513Z,101980.25
2022-08-09T18:12:10.056Z,101978.84
2022-08-09T18:14:49.495Z,101979.09
2022-08-09T18:17:18.627Z,101983.59
2022-08-09T18:20:56.209Z,101980.69
2022-08-09T18:22:33.949Z,101993.19
2022-08-09T18:25:00.957Z,101988.91
2022-08-09T18:27:49.100Z,101994.47
2022-08-09T18:30:42.022Z,101995.19
2022-08-09T18:33:02.281Z,101993.59
2022-08-09T18:35:58.230Z,101992.28
2022-08-09T18:38:26.068Z,101992.41
2022-08-09T18:40:55.438Z,101997.47
2022-08-09T18:43:23.280Z,101997.91
2022-08-09T18:46:47.375Z,101999.16
2022-08-09T18:48:36.889Z,102012.47
2022-08-09T18:51:03.618Z,102009.38
2022-08-09T18:53:56.544Z,102013.09
2022-08-09T18:56:27.164Z,102012.03
2022-08-09T18:58:55.741Z,102018.09
2022-08-09T19:01:23.154Z,102013.78
2022-08-09T19:04:01.307Z,102020.84
2022-08-09T19:06:34.332Z,102025.69
2022-08-09T19:09:04.699Z,102029.88
2022-08-09T19:11:37.649Z,102038.50
2022-08-09T19:14:06.189Z,102027.28
2022-08-09T19:16:36.234Z,102040.41
2022-08-09T19:19:25.299Z,102035.53
2022-08-09T19:22:04.765Z,102037.13
2022-08-09T19:25:07.218Z,102036.63
2022-08-09T19:27:21.499Z,102045.16
2022-08-09T19:30:25.061Z,102050.78
2022-08-09T19:32:35.963Z,102043.22
2022-08-09T19:35:04.397Z,102048.88
2022-08-09T19:37:40.923Z,102049.19
2022-08-09T19:40:19.031Z,102040.56
2022-08-09T19:42:49.697Z,102045.28
2022-08-09T19:45:16.741Z,102049.34
2022-08-09T19:47:44.477Z,102056.59
2022-08-09T19:50:51.157Z,102050.66
2022-08-09T19:52:59.470Z,102051.81
2022-08-09T19:55:53.331Z,102053.69
2022-08-09T19:58:29.748Z,102051.44
2022-08-09T20:00:57.689Z,102056.19
2022-08-09T20:04:16.942Z,102053.78
2022-08-09T20:06:23.313Z,102052.94
2022-08-09T20:08:56.824Z,102057.66
2022-08-09T20:11:26.598Z,102054.31
2022-08-09T20:13:56.912Z,102066.13
2022-08-09T20:16:35.772Z,102055.63
2022-08-09T20:19:48.775Z,102053.31
2022-08-09T20:21:55.237Z,102057.97
2022-08-09T20:24:31.918Z,102059.91
2022-08-09T20:27:01.123Z,102067.13
2022-08-09T20:29:32.614Z,102068.28
2022-08-09T20:32:29.117Z,102058.66
2022-08-09T20:34:55.099Z,102060.66
2022-08-09T20:37:22.492Z,102060.78
2022-08-09T20:40:15.255Z,102062.75
2022-08-09T20:42:37.727Z,102062.94
2022-08-09T20:45:57.048Z,102065.75
2022-08-09T20:47:52.400Z,102069.44
2022-08-09T20:50:48.144Z,102069.53
2022-08-09T20:53:35.756Z,102076.84
2022-08-09T20:56:02.345Z,102069.84
2022-08-09T20:58:33.122Z,102066.34
2022-08-09T21:01:33.487Z,102071.97
2022-08-09T21:05:49.422Z,102080.03
2022-08-09T21:06:42.482Z,102084.63
2022-08-09T21:09:24.764Z,102083.84
2022-08-09T21:14:37.009Z,102085.94
2022-08-09T21:18:22.981Z,102092.25
2022-08-09T21:20:19.619Z,102087.09
2022-08-09T21:22:41.683Z,102081.75
2022-08-09T21:25:27.948Z,102081.88
2022-08-09T21:28:07.088Z,102100.66
2022-08-09T21:30:40.404Z,102097.16
2022-08-09T21:33:08.425Z,102098.94
2022-08-09T21:35:41.027Z,102104.38
2022-08-09T21:38:21.091Z,102093.72
2022-08-09T21:40:58.794Z,102101.84
2022-08-09T21:43:56.095Z,102101.06
2022-08-09T21:46:13.658Z,102099.44
2022-08-09T21:48:42.729Z,102099.50
2022-08-09T21:51:24.180Z,102094.28
2022-08-09T21:53:54.914Z,102090.88
2022-08-09T21:56:42.998Z,102100.66
2022-08-09T21:59:09.422Z,102097.22
2022-08-09T22:01:58.991Z,102099.06
2022-08-09T22:04:55.469Z,102103.66
2022-08-09T22:07:14.326Z,102103.69
2022-08-09T22:09:50.630Z,102101.97
2022-08-09T22:12:30.604Z,102102.06
2022-08-09T22:14:58.129Z,102100.25
2022-08-09T22:17:24.839Z,102095.91
2022-08-09T22:19:59.856Z,102096.81
2022-08-09T22:22:28.327Z,102098.72
2022-08-09T22:26:07.872Z,102096.97
2022-08-09T22:27:42.238Z,102096.13
2022-08-09T22:30:09.813Z,102098.88
2022-08-09T22:32:37.585Z,102096.28
2022-08-09T22:36:03.348Z,102097.22
2022-08-09T22:38:07.045Z,102106.19
2022-08-09T22:40:35.481Z,102106.22
2022-08-09T22:43:08.647Z,102109.81
2022-08-09T22:48:12.676Z,102104.53
2022-08-09T22:48:36.208Z,102109.03
2022-08-09T22:51:10.963Z,102108.22
2022-08-09T22:54:02.474Z,102104.72
2022-08-09T22:56:33.773Z,102097.69
2022-08-09T22:59:06.032Z,102104.81
2022-08-09T23:01:49.040Z,102102.22
2022-08-09T23:04:15.823Z,102098.69
2022-08-09T23:07:02.443Z,102096.94
2022-08-09T23:09:31.874Z,102094.34
2022-08-09T23:12:02.765Z,102098.78
2022-08-09T23:14:30.392Z,102089.97
2022-08-09T23:17:10.269Z,102092.66
2022-08-09T23:20:06.739Z,102097.97
2022-08-09T23:22:23.585Z,102088.28
2022-08-09T23:24:50.254Z,102094.53
2022-08-09T23:27:16.923Z,102092.75
2022-08-09T23:29:43.686Z,102099.00
2022-08-09T23:32:10.416Z,102100.84
2022-08-09T23:34:39.338Z,102105.28
2022-08-09T23:37:06.322Z,102111.50
2022-08-09T23:39:33.184Z,102105.34
2022-08-09T23:42:00.066Z,102104.50
2022-08-09T23:44:26.777Z,102104.50
2022-08-09T23:46:57.486Z,102101.88
2022-08-09T23:49:25.526Z,102109.88
2022-08-09T23:51:53.055Z,102108.09
2022-08-09T23:54:20.572Z,102106.34
2022-08-09T23:56:54.557Z,102106.34
2022-08-09T23:59:23.225Z,102109.06
